sensor_id;sensor_type;location;lat;lon;timestamp;P1;durP1;ratioP1;P2;durP2;ratioP2
35803;SDS011;21924;51.934;7.414;2023-04-24T00:01:01;4.00;;;2.88;;
35803;SDS011;21924;51.934;7.414;2023-04-24T00:03:46;3.70;;;2.90;;
35803;SDS011;21924;51.934;7.414;2023-04-24T00:06:30;5.13;;;3.38;;
35803;SDS011;21924;51.934;7.414;2023-04-24T00:09:17;6.50;;;3.08;;
35803;SDS011;21924;51.934;7.414;2023-04-24T00:12:01;3.45;;;2.65;;
35803;SDS011;21924;51.934;7.414;2023-04-24T00:14:48;4.07;;;3.15;;
35803;SDS011;21924;51.934;7.414;2023-04-24T00:17:32;5.05;;;3.35;;
35803;SDS011;21924;51.934;7.414;2023-04-24T00:20:16;4.90;;;3.20;;
35803;SDS011;21924;51.934;7.414;2023-04-24T00:23:02;3.75;;;2.55;;
35803;SDS011;21924;51.934;7.414;2023-04-24T00:25:46;8.27;;;2.88;;
35803;SDS011;21924;51.934;7.414;2023-04-24T00:28:31;3.25;;;2.83;;
35803;SDS011;21924;51.934;7.414;2023-04-24T00:31:15;2.95;;;2.70;;
35803;SDS011;21924;51.934;7.414;2023-04-24T00:34:00;7.00;;;2.58;;
35803;SDS011;21924;51.934;7.414;2023-04-24T00:36:45;2.72;;;2.53;;
35803;SDS011;21924;51.934;7.414;2023-04-24T00:39:30;2.55;;;2.35;;
35803;SDS011;21924;51.934;7.414;2023-04-24T00:42:14;3.20;;;2.45;;
35803;SDS011;21924;51.934;7.414;2023-04-24T00:44:58;3.63;;;2.20;;
35803;SDS011;21924;51.934;7.414;2023-04-24T00:47:44;3.57;;;2.57;;
35803;SDS011;21924;51.934;7.414;2023-04-24T00:50:29;3.47;;;2.53;;
35803;SDS011;21924;51.934;7.414;2023-04-24T00:53:14;7.82;;;2.63;;
35803;SDS011;21924;51.934;7.414;2023-04-24T00:55:59;2.80;;;2.35;;
35803;SDS011;21924;51.934;7.414;2023-04-24T00:58:44;2.55;;;1.95;;
35803;SDS011;21924;51.934;7.414;2023-04-24T01:01:28;3.25;;;2.40;;
35803;SDS011;21924;51.934;7.414;2023-04-24T01:04:12;5.22;;;2.28;;
35803;SDS011;21924;51.934;7.414;2023-04-24T01:06:58;3.38;;;2.35;;
35803;SDS011;21924;51.934;7.414;2023-04-24T01:09:43;4.00;;;2.08;;
35803;SDS011;21924;51.934;7.414;2023-04-24T01:12:32;3.85;;;2.85;;
35803;SDS011;21924;51.934;7.414;2023-04-24T01:15:16;4.05;;;2.88;;
35803;SDS011;21924;51.934;7.414;2023-04-24T01:18:01;5.20;;;3.28;;
35803;SDS011;21924;51.934;7.414;2023-04-24T01:20:46;5.35;;;3.63;;
35803;SDS011;21924;51.934;7.414;2023-04-24T01:23:31;3.50;;;2.88;;
35803;SDS011;21924;51.934;7.414;2023-04-24T01:26:16;3.45;;;3.15;;
35803;SDS011;21924;51.934;7.414;2023-04-24T01:29:03;4.78;;;3.35;;
35803;SDS011;21924;51.934;7.414;2023-04-24T01:31:47;5.75;;;3.92;;
35803;SDS011;21924;51.934;7.414;2023-04-24T01:34:32;7.15;;;3.95;;
35803;SDS011;21924;51.934;7.414;2023-04-24T01:37:16;6.03;;;4.10;;
35803;SDS011;21924;51.934;7.414;2023-04-24T01:40:01;5.07;;;3.58;;
35803;SDS011;21924;51.934;7.414;2023-04-24T01:42:47;5.57;;;3.72;;
35803;SDS011;21924;51.934;7.414;2023-04-24T01:45:31;6.88;;;3.70;;
35803;SDS011;21924;51.934;7.414;2023-04-24T01:48:16;5.60;;;3.90;;
35803;SDS011;21924;51.934;7.414;2023-04-24T01:51:00;5.30;;;3.42;;
35803;SDS011;21924;51.934;7.414;2023-04-24T01:53:44;5.70;;;3.50;;
35803;SDS011;21924;51.934;7.414;2023-04-24T01:56:29;5.80;;;3.53;;
35803;SDS011;21924;51.934;7.414;2023-04-24T01:59:16;5.15;;;4.13;;
35803;SDS011;21924;51.934;7.414;2023-04-24T02:02:02;9.38;;;3.28;;
35803;SDS011;21924;51.934;7.414;2023-04-24T02:04:47;5.97;;;3.85;;
35803;SDS011;21924;51.934;7.414;2023-04-24T02:07:31;6.45;;;3.63;;
35803;SDS011;21924;51.934;7.414;2023-04-24T02:10:16;4.93;;;4.43;;
35803;SDS011;21924;51.934;7.414;2023-04-24T02:13:00;7.55;;;4.20;;
35803;SDS011;21924;51.934;7.414;2023-04-24T02:15:44;4.40;;;3.70;;
35803;SDS011;21924;51.934;7.414;2023-04-24T02:18:28;7.10;;;4.35;;
35803;SDS011;21924;51.934;7.414;2023-04-24T02:21:12;5.93;;;4.15;;
35803;SDS011;21924;51.934;7.414;2023-04-24T02:23:57;7.78;;;5.32;;
35803;SDS011;21924;51.934;7.414;2023-04-24T02:26:41;7.68;;;4.70;;
35803;SDS011;21924;51.934;7.414;2023-04-24T02:29:25;7.20;;;5.28;;
35803;SDS011;21924;51.934;7.414;2023-04-24T02:32:09;8.52;;;5.68;;
35803;SDS011;21924;51.934;7.414;2023-04-24T02:34:55;8.73;;;5.80;;
35803;SDS011;21924;51.934;7.414;2023-04-24T02:37:39;11.63;;;6.07;;
35803;SDS011;21924;51.934;7.414;2023-04-24T02:40:24;12.18;;;7.63;;
35803;SDS011;21924;51.934;7.414;2023-04-24T02:43:08;9.00;;;6.68;;
35803;SDS011;21924;51.934;7.414;2023-04-24T02:45:52;14.85;;;8.05;;
35803;SDS011;21924;51.934;7.414;2023-04-24T02:48:36;15.00;;;8.18;;
35803;SDS011;21924;51.934;7.414;2023-04-24T02:51:21;13.18;;;8.10;;
35803;SDS011;21924;51.934;7.414;2023-04-24T02:54:05;16.58;;;8.00;;
35803;SDS011;21924;51.934;7.414;2023-04-24T02:56:50;14.55;;;9.27;;
35803;SDS011;21924;51.934;7.414;2023-04-24T02:59:34;15.05;;;8.73;;
35803;SDS011;21924;51.934;7.414;2023-04-24T03:02:18;14.05;;;9.05;;
35803;SDS011;21924;51.934;7.414;2023-04-24T03:05:04;14.73;;;9.95;;
35803;SDS011;21924;51.934;7.414;2023-04-24T03:07:48;17.13;;;9.52;;
35803;SDS011;21924;51.934;7.414;2023-04-24T03:10:33;18.73;;;10.90;;
35803;SDS011;21924;51.934;7.414;2023-04-24T03:13:17;22.40;;;11.07;;
35803;SDS011;21924;51.934;7.414;2023-04-24T03:16:02;19.42;;;11.60;;
35803;SDS011;21924;51.934;7.414;2023-04-24T03:18:46;27.65;;;11.15;;
35803;SDS011;21924;51.934;7.414;2023-04-24T03:21:30;19.45;;;11.32;;
35803;SDS011;21924;51.934;7.414;2023-04-24T03:24:15;16.92;;;11.30;;
35803;SDS011;21924;51.934;7.414;2023-04-24T03:26:59;18.80;;;11.32;;
35803;SDS011;21924;51.934;7.414;2023-04-24T03:29:43;25.75;;;13.13;;
35803;SDS011;21924;51.934;7.414;2023-04-24T03:32:28;19.90;;;12.50;;
35803;SDS011;21924;51.934;7.414;2023-04-24T03:35:12;22.83;;;11.70;;
35803;SDS011;21924;51.934;7.414;2023-04-24T03:37:57;23.50;;;11.57;;
35803;SDS011;21924;51.934;7.414;2023-04-24T03:40:41;21.02;;;12.38;;
35803;SDS011;21924;51.934;7.414;2023-04-24T03:43:25;22.30;;;13.07;;
35803;SDS011;21924;51.934;7.414;2023-04-24T03:46:10;25.33;;;13.68;;
35803;SDS011;21924;51.934;7.414;2023-04-24T03:48:55;23.65;;;13.50;;
35803;SDS011;21924;51.934;7.414;2023-04-24T03:51:39;24.83;;;13.13;;
35803;SDS011;21924;51.934;7.414;2023-04-24T03:54:24;22.45;;;13.73;;
35803;SDS011;21924;51.934;7.414;2023-04-24T03:57:08;27.17;;;14.15;;
35803;SDS011;21924;51.934;7.414;2023-04-24T03:59:53;29.88;;;15.05;;
35803;SDS011;21924;51.934;7.414;2023-04-24T04:02:37;23.52;;;14.50;;
35803;SDS011;21924;51.934;7.414;2023-04-24T04:05:21;26.75;;;14.18;;
35803;SDS011;21924;51.934;7.414;2023-04-24T04:08:06;24.45;;;14.57;;
35803;SDS011;21924;51.934;7.414;2023-04-24T04:10:50;31.98;;;16.85;;
35803;SDS011;21924;51.934;7.414;2023-04-24T04:13:34;33.00;;;16.50;;
35803;SDS011;21924;51.934;7.414;2023-04-24T04:16:18;29.35;;;16.10;;
35803;SDS011;21924;51.934;7.414;2023-04-24T04:19:03;31.15;;;16.15;;
35803;SDS011;21924;51.934;7.414;2023-04-24T04:21:47;33.60;;;17.90;;
35803;SDS011;21924;51.934;7.414;2023-04-24T04:24:36;32.42;;;16.40;;
35803;SDS011;21924;51.934;7.414;2023-04-24T04:27:21;34.80;;;17.10;;
35803;SDS011;21924;51.934;7.414;2023-04-24T04:30:06;32.80;;;17.83;;
35803;SDS011;21924;51.934;7.414;2023-04-24T04:32:50;33.00;;;17.15;;
35803;SDS011;21924;51.934;7.414;2023-04-24T04:35:34;36.83;;;18.02;;
35803;SDS011;21924;51.934;7.414;2023-04-24T04:38:20;43.88;;;18.70;;
35803;SDS011;21924;51.934;7.414;2023-04-24T04:41:04;36.08;;;18.90;;
35803;SDS011;21924;51.934;7.414;2023-04-24T04:43:49;31.45;;;17.10;;
35803;SDS011;21924;51.934;7.414;2023-04-24T04:46:33;29.38;;;16.00;;
35803;SDS011;21924;51.934;7.414;2023-04-24T04:49:18;34.92;;;18.88;;
35803;SDS011;21924;51.934;7.414;2023-04-24T04:52:04;37.38;;;19.30;;
35803;SDS011;21924;51.934;7.414;2023-04-24T04:54:48;30.17;;;17.60;;
35803;SDS011;21924;51.934;7.414;2023-04-24T04:57:32;32.72;;;17.50;;
35803;SDS011;21924;51.934;7.414;2023-04-24T05:00:17;35.53;;;17.88;;
35803;SDS011;21924;51.934;7.414;2023-04-24T05:03:01;36.45;;;16.95;;
35803;SDS011;21924;51.934;7.414;2023-04-24T05:05:45;39.20;;;17.33;;
35803;SDS011;21924;51.934;7.414;2023-04-24T05:08:30;30.95;;;17.80;;
35803;SDS011;21924;51.934;7.414;2023-04-24T05:11:14;40.38;;;18.63;;
35803;SDS011;21924;51.934;7.414;2023-04-24T05:13:58;35.63;;;18.67;;
35803;SDS011;21924;51.934;7.414;2023-04-24T05:16:43;35.03;;;16.33;;
35803;SDS011;21924;51.934;7.414;2023-04-24T05:19:27;32.00;;;17.30;;
35803;SDS011;21924;51.934;7.414;2023-04-24T05:22:11;35.25;;;19.20;;
35803;SDS011;21924;51.934;7.414;2023-04-24T05:24:56;40.53;;;18.38;;
35803;SDS011;21924;51.934;7.414;2023-04-24T05:27:40;36.80;;;19.98;;
35803;SDS011;21924;51.934;7.414;2023-04-24T05:30:25;31.48;;;18.20;;
35803;SDS011;21924;51.934;7.414;2023-04-24T05:33:09;37.38;;;18.45;;
35803;SDS011;21924;51.934;7.414;2023-04-24T05:35:54;39.15;;;17.67;;
35803;SDS011;21924;51.934;7.414;2023-04-24T05:38:38;34.17;;;17.73;;
35803;SDS011;21924;51.934;7.414;2023-04-24T05:41:22;37.72;;;19.58;;
35803;SDS011;21924;51.934;7.414;2023-04-24T05:44:06;30.80;;;18.15;;
35803;SDS011;21924;51.934;7.414;2023-04-24T05:46:51;36.88;;;17.60;;
35803;SDS011;21924;51.934;7.414;2023-04-24T05:49:35;33.08;;;16.95;;
35803;SDS011;21924;51.934;7.414;2023-04-24T05:52:19;32.00;;;17.25;;
35803;SDS011;21924;51.934;7.414;2023-04-24T05:55:03;35.20;;;18.70;;
35803;SDS011;21924;51.934;7.414;2023-04-24T05:57:49;33.78;;;18.17;;
35803;SDS011;21924;51.934;7.414;2023-04-24T06:00:33;32.33;;;17.30;;
35803;SDS011;21924;51.934;7.414;2023-04-24T06:03:18;32.00;;;17.40;;
35803;SDS011;21924;51.934;7.414;2023-04-24T06:06:02;30.25;;;15.55;;
35803;SDS011;21924;51.934;7.414;2023-04-24T06:08:46;30.55;;;15.63;;
35803;SDS011;21924;51.934;7.414;2023-04-24T06:11:31;32.17;;;17.35;;
35803;SDS011;21924;51.934;7.414;2023-04-24T06:14:15;36.00;;;16.67;;
35803;SDS011;21924;51.934;7.414;2023-04-24T06:16:59;39.47;;;16.98;;
35803;SDS011;21924;51.934;7.414;2023-04-24T06:19:43;28.65;;;16.60;;
35803;SDS011;21924;51.934;7.414;2023-04-24T06:22:28;30.48;;;17.02;;
35803;SDS011;21924;51.934;7.414;2023-04-24T06:25:12;30.23;;;16.40;;
35803;SDS011;21924;51.934;7.414;2023-04-24T06:27:56;28.85;;;15.98;;
35803;SDS011;21924;51.934;7.414;2023-04-24T06:30:40;29.38;;;16.48;;
35803;SDS011;21924;51.934;7.414;2023-04-24T06:33:25;29.15;;;15.82;;
35803;SDS011;21924;51.934;7.414;2023-04-24T06:36:09;29.27;;;15.82;;
35803;SDS011;21924;51.934;7.414;2023-04-24T06:38:54;26.65;;;15.73;;
35803;SDS011;21924;51.934;7.414;2023-04-24T06:41:38;24.15;;;15.27;;
35803;SDS011;21924;51.934;7.414;2023-04-24T06:44:23;24.38;;;14.40;;
35803;SDS011;21924;51.934;7.414;2023-04-24T06:47:08;25.40;;;14.82;;
35803;SDS011;21924;51.934;7.414;2023-04-24T06:49:53;25.77;;;15.60;;
35803;SDS011;21924;51.934;7.414;2023-04-24T06:52:38;31.08;;;15.27;;
35803;SDS011;21924;51.934;7.414;2023-04-24T06:55:22;22.33;;;13.85;;
35803;SDS011;21924;51.934;7.414;2023-04-24T06:58:06;24.65;;;15.25;;
35803;SDS011;21924;51.934;7.414;2023-04-24T07:00:51;22.60;;;13.88;;
35803;SDS011;21924;51.934;7.414;2023-04-24T07:03:35;28.70;;;15.68;;
35803;SDS011;21924;51.934;7.414;2023-04-24T07:06:21;27.48;;;13.65;;
35803;SDS011;21924;51.934;7.414;2023-04-24T07:09:08;23.95;;;14.15;;
35803;SDS011;21924;51.934;7.414;2023-04-24T07:11:52;26.60;;;15.15;;
35803;SDS011;21924;51.934;7.414;2023-04-24T07:14:37;25.85;;;15.27;;
35803;SDS011;21924;51.934;7.414;2023-04-24T07:17:22;23.10;;;13.02;;
35803;SDS011;21924;51.934;7.414;2023-04-24T07:20:06;28.98;;;14.35;;
35803;SDS011;21924;51.934;7.414;2023-04-24T07:22:53;27.27;;;15.25;;
35803;SDS011;21924;51.934;7.414;2023-04-24T07:25:37;22.25;;;13.60;;
35803;SDS011;21924;51.934;7.414;2023-04-24T07:28:22;25.65;;;14.60;;
35803;SDS011;21924;51.934;7.414;2023-04-24T07:31:07;25.30;;;14.98;;
35803;SDS011;21924;51.934;7.414;2023-04-24T07:33:51;24.70;;;13.52;;
35803;SDS011;21924;51.934;7.414;2023-04-24T07:36:36;22.33;;;13.18;;
35803;SDS011;21924;51.934;7.414;2023-04-24T07:39:22;23.30;;;12.95;;
35803;SDS011;21924;51.934;7.414;2023-04-24T07:42:07;29.60;;;11.48;;
35803;SDS011;21924;51.934;7.414;2023-04-24T07:44:52;18.25;;;10.75;;
35803;SDS011;21924;51.934;7.414;2023-04-24T07:47:36;17.05;;;11.07;;
35803;SDS011;21924;51.934;7.414;2023-04-24T07:50:22;15.33;;;10.23;;
35803;SDS011;21924;51.934;7.414;2023-04-24T07:53:06;24.10;;;11.27;;
35803;SDS011;21924;51.934;7.414;2023-04-24T07:55:50;15.15;;;10.23;;
35803;SDS011;21924;51.934;7.414;2023-04-24T07:58:34;16.23;;;9.75;;
35803;SDS011;21924;51.934;7.414;2023-04-24T08:01:19;13.35;;;8.85;;
35803;SDS011;21924;51.934;7.414;2023-04-24T08:04:03;13.00;;;9.27;;
35803;SDS011;21924;51.934;7.414;2023-04-24T08:06:47;14.05;;;10.07;;
35803;SDS011;21924;51.934;7.414;2023-04-24T08:09:32;12.48;;;8.30;;
35803;SDS011;21924;51.934;7.414;2023-04-24T08:12:16;13.35;;;9.18;;
35803;SDS011;21924;51.934;7.414;2023-04-24T08:15:00;12.60;;;8.65;;
35803;SDS011;21924;51.934;7.414;2023-04-24T08:17:45;12.13;;;8.35;;
35803;SDS011;21924;51.934;7.414;2023-04-24T08:20:29;18.10;;;9.98;;
35803;SDS011;21924;51.934;7.414;2023-04-24T08:23:14;13.60;;;9.18;;
35803;SDS011;21924;51.934;7.414;2023-04-24T08:25:58;13.00;;;8.63;;
35803;SDS011;21924;51.934;7.414;2023-04-24T08:28:42;12.57;;;8.75;;
35803;SDS011;21924;51.934;7.414;2023-04-24T08:31:27;10.98;;;7.22;;
35803;SDS011;21924;51.934;7.414;2023-04-24T08:34:11;12.45;;;7.55;;
35803;SDS011;21924;51.934;7.414;2023-04-24T08:36:55;10.35;;;6.53;;
35803;SDS011;21924;51.934;7.414;2023-04-24T08:39:39;9.30;;;5.70;;
35803;SDS011;21924;51.934;7.414;2023-04-24T08:42:24;7.82;;;6.28;;
35803;SDS011;21924;51.934;7.414;2023-04-24T08:45:10;9.35;;;6.50;;
35803;SDS011;21924;51.934;7.414;2023-04-24T08:50:41;8.55;;;5.85;;
35803;SDS011;21924;51.934;7.414;2023-04-24T08:53:26;8.30;;;5.57;;
35803;SDS011;21924;51.934;7.414;2023-04-24T08:56:11;7.00;;;5.25;;
35803;SDS011;21924;51.934;7.414;2023-04-24T08:58:56;7.20;;;5.10;;
35803;SDS011;21924;51.934;7.414;2023-04-24T09:01:41;6.25;;;4.55;;
35803;SDS011;21924;51.934;7.414;2023-04-24T09:04:28;6.40;;;4.53;;
35803;SDS011;21924;51.934;7.414;2023-04-24T09:07:14;6.60;;;4.40;;
35803;SDS011;21924;51.934;7.414;2023-04-24T09:10:01;7.03;;;4.15;;
35803;SDS011;21924;51.934;7.414;2023-04-24T09:12:46;5.95;;;4.30;;
35803;SDS011;21924;51.934;7.414;2023-04-24T09:15:31;6.82;;;4.65;;
35803;SDS011;21924;51.934;7.414;2023-04-24T09:18:17;6.22;;;4.55;;
35803;SDS011;21924;51.934;7.414;2023-04-24T09:21:05;5.37;;;3.97;;
35803;SDS011;21924;51.934;7.414;2023-04-24T09:23:58;7.13;;;4.30;;
35803;SDS011;21924;51.934;7.414;2023-04-24T09:26:43;12.02;;;4.85;;
35803;SDS011;21924;51.934;7.414;2023-04-24T09:29:28;7.82;;;4.35;;
35803;SDS011;21924;51.934;7.414;2023-04-24T09:32:19;6.15;;;4.55;;
35803;SDS011;21924;51.934;7.414;2023-04-24T09:35:13;9.30;;;4.38;;
35803;SDS011;21924;51.934;7.414;2023-04-24T09:37:58;8.02;;;4.95;;
35803;SDS011;21924;51.934;7.414;2023-04-24T09:40:42;6.28;;;4.13;;
35803;SDS011;21924;51.934;7.414;2023-04-24T09:43:27;5.85;;;5.00;;
35803;SDS011;21924;51.934;7.414;2023-04-24T09:46:11;7.50;;;4.18;;
35803;SDS011;21924;51.934;7.414;2023-04-24T09:48:55;7.95;;;4.85;;
35803;SDS011;21924;51.934;7.414;2023-04-24T09:51:39;7.85;;;4.43;;
35803;SDS011;21924;51.934;7.414;2023-04-24T09:54:24;7.53;;;4.00;;
35803;SDS011;21924;51.934;7.414;2023-04-24T09:57:09;6.50;;;4.30;;
35803;SDS011;21924;51.934;7.414;2023-04-24T09:59:53;10.52;;;3.92;;
35803;SDS011;21924;51.934;7.414;2023-04-24T10:02:37;6.63;;;4.10;;
35803;SDS011;21924;51.934;7.414;2023-04-24T10:08:16;4.78;;;3.63;;
35803;SDS011;21924;51.934;7.414;2023-04-24T10:11:00;7.72;;;3.80;;
35803;SDS011;21924;51.934;7.414;2023-04-24T10:13:45;12.68;;;3.22;;
35803;SDS011;21924;51.934;7.414;2023-04-24T10:16:29;4.97;;;3.42;;
35803;SDS011;21924;51.934;7.414;2023-04-24T10:19:15;7.63;;;3.90;;
35803;SDS011;21924;51.934;7.414;2023-04-24T10:22:02;9.10;;;3.42;;
35803;SDS011;21924;51.934;7.414;2023-04-24T10:24:47;5.45;;;3.55;;
35803;SDS011;21924;51.934;7.414;2023-04-24T10:27:33;8.90;;;4.55;;
35803;SDS011;21924;51.934;7.414;2023-04-24T10:30:19;7.80;;;5.32;;
35803;SDS011;21924;51.934;7.414;2023-04-24T10:33:04;10.23;;;5.22;;
35803;SDS011;21924;51.934;7.414;2023-04-24T10:35:50;10.35;;;5.82;;
35803;SDS011;21924;51.934;7.414;2023-04-24T10:38:35;10.18;;;6.55;;
35803;SDS011;21924;51.934;7.414;2023-04-24T10:41:21;8.82;;;5.35;;
35803;SDS011;21924;51.934;7.414;2023-04-24T10:44:13;11.32;;;5.40;;
35803;SDS011;21924;51.934;7.414;2023-04-24T10:46:58;14.40;;;5.18;;
35803;SDS011;21924;51.934;7.414;2023-04-24T10:49:43;14.27;;;5.70;;
35803;SDS011;21924;51.934;7.414;2023-04-24T10:52:43;9.63;;;5.53;;
35803;SDS011;21924;51.934;7.414;2023-04-24T10:55:50;11.70;;;5.95;;
35803;SDS011;21924;51.934;7.414;2023-04-24T10:58:49;9.20;;;6.03;;
35803;SDS011;21924;51.934;7.414;2023-04-24T11:01:35;9.98;;;6.00;;
35803;SDS011;21924;51.934;7.414;2023-04-24T11:04:32;10.95;;;5.07;;
35803;SDS011;21924;51.934;7.414;2023-04-24T11:07:17;8.10;;;5.43;;
35803;SDS011;21924;51.934;7.414;2023-04-24T11:10:01;11.20;;;6.18;;
35803;SDS011;21924;51.934;7.414;2023-04-24T11:12:45;8.85;;;6.00;;
35803;SDS011;21924;51.934;7.414;2023-04-24T11:15:29;9.15;;;5.95;;
35803;SDS011;21924;51.934;7.414;2023-04-24T11:18:14;13.15;;;6.47;;
35803;SDS011;21924;51.934;7.414;2023-04-24T11:20:59;10.75;;;6.40;;
35803;SDS011;21924;51.934;7.414;2023-04-24T11:23:54;13.45;;;6.47;;
35803;SDS011;21924;51.934;7.414;2023-04-24T11:26:39;13.80;;;6.10;;
35803;SDS011;21924;51.934;7.414;2023-04-24T11:29:45;8.68;;;5.50;;
35803;SDS011;21924;51.934;7.414;2023-04-24T11:38:01;14.23;;;5.82;;
35803;SDS011;21924;51.934;7.414;2023-04-24T11:40:46;10.35;;;5.97;;
35803;SDS011;21924;51.934;7.414;2023-04-24T11:43:32;17.27;;;6.68;;
35803;SDS011;21924;51.934;7.414;2023-04-24T11:46:20;15.88;;;6.25;;
35803;SDS011;21924;51.934;7.414;2023-04-24T11:49:05;14.98;;;6.78;;
35803;SDS011;21924;51.934;7.414;2023-04-24T11:51:49;13.52;;;6.60;;
35803;SDS011;21924;51.934;7.414;2023-04-24T11:54:34;9.85;;;6.60;;
35803;SDS011;21924;51.934;7.414;2023-04-24T11:57:19;20.45;;;7.72;;
35803;SDS011;21924;51.934;7.414;2023-04-24T12:00:05;17.52;;;6.82;;
35803;SDS011;21924;51.934;7.414;2023-04-24T12:02:50;11.75;;;6.97;;
35803;SDS011;21924;51.934;7.414;2023-04-24T12:05:35;14.20;;;6.22;;
35803;SDS011;21924;51.934;7.414;2023-04-24T12:08:28;13.75;;;6.38;;
35803;SDS011;21924;51.934;7.414;2023-04-24T12:11:14;17.77;;;7.28;;
35803;SDS011;21924;51.934;7.414;2023-04-24T12:14:11;17.25;;;6.78;;
35803;SDS011;21924;51.934;7.414;2023-04-24T12:16:55;18.45;;;5.85;;
35803;SDS011;21924;51.934;7.414;2023-04-24T12:19:44;17.00;;;6.85;;
35803;SDS011;21924;51.934;7.414;2023-04-24T12:22:49;12.07;;;5.60;;
35803;SDS011;21924;51.934;7.414;2023-04-24T12:25:37;13.95;;;5.70;;
35803;SDS011;21924;51.934;7.414;2023-04-24T12:28:22;18.35;;;5.93;;
35803;SDS011;21924;51.934;7.414;2023-04-24T12:31:07;11.75;;;5.78;;
35803;SDS011;21924;51.934;7.414;2023-04-24T12:33:51;14.82;;;6.50;;
35803;SDS011;21924;51.934;7.414;2023-04-24T12:36:35;16.30;;;6.03;;
35803;SDS011;21924;51.934;7.414;2023-04-24T12:39:20;14.43;;;5.88;;
35803;SDS011;21924;51.934;7.414;2023-04-24T12:42:07;17.38;;;5.85;;
35803;SDS011;21924;51.934;7.414;2023-04-24T12:44:55;16.83;;;6.30;;
35803;SDS011;21924;51.934;7.414;2023-04-24T12:47:42;19.38;;;5.82;;
35803;SDS011;21924;51.934;7.414;2023-04-24T12:50:27;11.40;;;5.78;;
35803;SDS011;21924;51.934;7.414;2023-04-24T12:53:11;15.13;;;6.00;;
35803;SDS011;21924;51.934;7.414;2023-04-24T12:55:55;12.13;;;6.40;;
35803;SDS011;21924;51.934;7.414;2023-04-24T12:58:40;14.88;;;6.20;;
35803;SDS011;21924;51.934;7.414;2023-04-24T13:01:24;21.35;;;6.68;;
35803;SDS011;21924;51.934;7.414;2023-04-24T13:04:09;17.25;;;6.70;;
35803;SDS011;21924;51.934;7.414;2023-04-24T13:06:54;13.20;;;5.35;;
35803;SDS011;21924;51.934;7.414;2023-04-24T13:09:38;13.27;;;5.47;;
35803;SDS011;21924;51.934;7.414;2023-04-24T13:12:22;14.88;;;5.72;;
35803;SDS011;21924;51.934;7.414;2023-04-24T13:15:07;10.98;;;5.95;;
35803;SDS011;21924;51.934;7.414;2023-04-24T13:17:52;12.95;;;4.78;;
35803;SDS011;21924;51.934;7.414;2023-04-24T13:20:36;13.05;;;4.80;;
35803;SDS011;21924;51.934;7.414;2023-04-24T13:23:20;12.10;;;4.32;;
35803;SDS011;21924;51.934;7.414;2023-04-24T13:26:06;8.63;;;4.00;;
35803;SDS011;21924;51.934;7.414;2023-04-24T13:28:51;4.18;;;3.13;;
35803;SDS011;21924;51.934;7.414;2023-04-24T13:31:35;7.93;;;3.30;;
35803;SDS011;21924;51.934;7.414;2023-04-24T13:34:19;4.93;;;3.13;;
35803;SDS011;21924;51.934;7.414;2023-04-24T13:37:04;8.43;;;3.45;;
35803;SDS011;21924;51.934;7.414;2023-04-24T13:39:48;6.53;;;3.05;;
35803;SDS011;21924;51.934;7.414;2023-04-24T13:42:33;7.32;;;3.00;;
35803;SDS011;21924;51.934;7.414;2023-04-24T13:45:18;9.32;;;2.90;;
35803;SDS011;21924;51.934;7.414;2023-04-24T13:48:02;8.90;;;3.20;;
35803;SDS011;21924;51.934;7.414;2023-04-24T13:50:46;7.78;;;2.80;;
35803;SDS011;21924;51.934;7.414;2023-04-24T13:53:32;4.22;;;2.40;;
35803;SDS011;21924;51.934;7.414;2023-04-24T13:56:19;3.58;;;2.90;;
35803;SDS011;21924;51.934;7.414;2023-04-24T13:59:04;7.05;;;2.70;;
35803;SDS011;21924;51.934;7.414;2023-04-24T14:01:49;6.95;;;2.55;;
35803;SDS011;21924;51.934;7.414;2023-04-24T14:04:33;7.25;;;2.72;;
35803;SDS011;21924;51.934;7.414;2023-04-24T14:07:17;3.38;;;2.58;;
35803;SDS011;21924;51.934;7.414;2023-04-24T14:10:02;3.88;;;2.72;;
35803;SDS011;21924;51.934;7.414;2023-04-24T14:12:46;4.30;;;2.50;;
35803;SDS011;21924;51.934;7.414;2023-04-24T14:15:30;4.93;;;2.90;;
35803;SDS011;21924;51.934;7.414;2023-04-24T14:18:15;4.25;;;2.30;;
35803;SDS011;21924;51.934;7.414;2023-04-24T14:20:59;7.32;;;2.65;;
35803;SDS011;21924;51.934;7.414;2023-04-24T14:23:45;10.20;;;3.70;;
35803;SDS011;21924;51.934;7.414;2023-04-24T14:26:29;3.95;;;2.63;;
35803;SDS011;21924;51.934;7.414;2023-04-24T14:29:13;3.80;;;2.35;;
35803;SDS011;21924;51.934;7.414;2023-04-24T14:31:57;8.35;;;3.08;;
35803;SDS011;21924;51.934;7.414;2023-04-24T14:34:42;7.45;;;2.50;;
35803;SDS011;21924;51.934;7.414;2023-04-24T14:37:26;3.42;;;2.35;;
35803;SDS011;21924;51.934;7.414;2023-04-24T14:40:10;4.80;;;2.50;;
35803;SDS011;21924;51.934;7.414;2023-04-24T14:42:55;6.47;;;2.97;;
35803;SDS011;21924;51.934;7.414;2023-04-24T14:45:40;4.63;;;3.25;;
35803;SDS011;21924;51.934;7.414;2023-04-24T14:48:25;9.02;;;2.80;;
35803;SDS011;21924;51.934;7.414;2023-04-24T14:51:09;5.47;;;2.60;;
35803;SDS011;21924;51.934;7.414;2023-04-24T14:53:53;6.82;;;2.70;;
35803;SDS011;21924;51.934;7.414;2023-04-24T14:56:37;8.18;;;2.83;;
35803;SDS011;21924;51.934;7.414;2023-04-24T14:59:24;6.97;;;2.40;;
35803;SDS011;21924;51.934;7.414;2023-04-24T15:02:09;6.28;;;3.00;;
35803;SDS011;21924;51.934;7.414;2023-04-24T15:04:53;7.07;;;3.05;;
35803;SDS011;21924;51.934;7.414;2023-04-24T15:07:37;4.68;;;2.42;;
35803;SDS011;21924;51.934;7.414;2023-04-24T15:10:22;6.35;;;2.63;;
35803;SDS011;21924;51.934;7.414;2023-04-24T15:13:07;16.63;;;3.08;;
35803;SDS011;21924;51.934;7.414;2023-04-24T15:15:52;4.03;;;2.60;;
35803;SDS011;21924;51.934;7.414;2023-04-24T15:18:36;3.00;;;2.42;;
35803;SDS011;21924;51.934;7.414;2023-04-24T15:21:20;5.90;;;2.78;;
35803;SDS011;21924;51.934;7.414;2023-04-24T15:24:04;7.55;;;2.58;;
35803;SDS011;21924;51.934;7.414;2023-04-24T15:26:49;3.70;;;2.30;;
35803;SDS011;21924;51.934;7.414;2023-04-24T15:29:33;6.00;;;2.58;;
35803;SDS011;21924;51.934;7.414;2023-04-24T15:32:18;7.85;;;3.03;;
35803;SDS011;21924;51.934;7.414;2023-04-24T15:35:02;6.70;;;2.88;;
35803;SDS011;21924;51.934;7.414;2023-04-24T15:37:47;3.20;;;2.45;;
35803;SDS011;21924;51.934;7.414;2023-04-24T15:40:31;7.68;;;3.33;;
35803;SDS011;21924;51.934;7.414;2023-04-24T15:43:15;5.40;;;2.40;;
35803;SDS011;21924;51.934;7.414;2023-04-24T15:46:00;6.22;;;2.53;;
35803;SDS011;21924;51.934;7.414;2023-04-24T15:48:45;2.17;;;2.00;;
35803;SDS011;21924;51.934;7.414;2023-04-24T15:51:30;8.95;;;4.07;;
35803;SDS011;21924;51.934;7.414;2023-04-24T15:54:14;8.25;;;2.78;;
35803;SDS011;21924;51.934;7.414;2023-04-24T15:56:59;5.68;;;2.30;;
35803;SDS011;21924;51.934;7.414;2023-04-24T15:59:44;3.90;;;2.08;;
35803;SDS011;21924;51.934;7.414;2023-04-24T16:02:28;3.08;;;1.85;;
35803;SDS011;21924;51.934;7.414;2023-04-24T16:05:12;7.93;;;2.08;;
35803;SDS011;21924;51.934;7.414;2023-04-24T16:07:57;6.78;;;2.65;;
35803;SDS011;21924;51.934;7.414;2023-04-24T16:10:41;5.00;;;2.20;;
35803;SDS011;21924;51.934;7.414;2023-04-24T16:13:26;5.95;;;2.50;;
35803;SDS011;21924;51.934;7.414;2023-04-24T16:16:12;3.97;;;2.53;;
35803;SDS011;21924;51.934;7.414;2023-04-24T16:18:56;4.32;;;2.58;;
35803;SDS011;21924;51.934;7.414;2023-04-24T16:21:40;5.63;;;2.72;;
35803;SDS011;21924;51.934;7.414;2023-04-24T16:24:25;4.05;;;2.28;;
35803;SDS011;21924;51.934;7.414;2023-04-24T16:27:09;9.02;;;2.65;;
35803;SDS011;21924;51.934;7.414;2023-04-24T16:29:53;7.28;;;3.08;;
35803;SDS011;21924;51.934;7.414;2023-04-24T16:32:37;10.18;;;2.70;;